createdAt,value
2023-03-30T00:01:56.281Z,13.10
2023-03-30T00:04:27.338Z,13.10
2023-03-30T00:06:54.319Z,13.10
2023-03-30T00:09:22.752Z,13.20
2023-03-30T00:11:49.958Z,13.20
2023-03-30T00:14:17.987Z,13.20
2023-03-30T00:16:44.691Z,13.20
2023-03-30T00:19:11.471Z,13.20
2023-03-30T00:21:38.137Z,13.20
2023-03-30T00:24:04.901Z,13.20
2023-03-30T00:26:31.628Z,13.20
2023-03-30T00:28:58.254Z,13.20
2023-03-30T00:31:25.120Z,13.30
2023-03-30T00:33:52.244Z,13.30
2023-03-30T00:36:18.967Z,13.30
2023-03-30T00:38:46.289Z,13.30
2023-03-30T00:41:12.939Z,13.30
2023-03-30T00:43:56.143Z,13.30
2023-03-30T00:46:23.585Z,13.30
2023-03-30T00:48:50.843Z,13.20
2023-03-30T00:51:18.968Z,13.20
2023-03-30T00:53:49.696Z,13.20
2023-03-30T00:56:19.397Z,13.10
2023-03-30T00:58:46.772Z,13.10
2023-03-30T01:01:18.465Z,13.10
2023-03-30T01:03:50.602Z,13.00
2023-03-30T01:06:21.948Z,12.90
2023-03-30T01:08:49.538Z,12.90
2023-03-30T01:11:16.491Z,12.90
2023-03-30T01:13:46.666Z,12.80
2023-03-30T01:16:35.428Z,12.80
2023-03-30T01:19:26.644Z,12.70
2023-03-30T01:22:06.781Z,12.60
2023-03-30T01:24:49.023Z,12.60
2023-03-30T01:27:30.454Z,12.60
2023-03-30T01:30:26.388Z,12.50
2023-03-30T01:33:21.256Z,12.60
2023-03-30T01:36:07.369Z,12.60
2023-03-30T01:39:04.309Z,12.60
2023-03-30T01:41:43.463Z,12.70
2023-03-30T01:44:28.840Z,12.70
2023-03-30T01:47:08.680Z,12.70
2023-03-30T01:49:49.217Z,12.70
2023-03-30T01:52:30.310Z,12.70
2023-03-30T01:55:04.737Z,12.70
2023-03-30T01:57:57.249Z,12.70
2023-03-30T02:00:25.404Z,12.80
2023-03-30T02:02:59.243Z,12.70
2023-03-30T02:05:28.522Z,12.70
2023-03-30T02:08:01.529Z,12.80
2023-03-30T02:10:31.800Z,12.80
2023-03-30T02:12:59.949Z,12.80
2023-03-30T02:15:38.541Z,12.80
2023-03-30T02:18:05.447Z,12.80
2023-03-30T02:20:33.178Z,12.80
2023-03-30T02:23:01.365Z,12.80
2023-03-30T02:25:28.648Z,12.80
2023-03-30T02:27:55.823Z,12.80
2023-03-30T02:30:22.495Z,12.70
2023-03-30T02:32:55.046Z,12.70
2023-03-30T02:35:40.380Z,12.70
2023-03-30T02:38:52.134Z,12.80
2023-03-30T02:41:24.683Z,12.90
2023-03-30T02:44:09.540Z,12.90
2023-03-30T02:46:38.931Z,12.90
2023-03-30T02:49:20.100Z,13.00
2023-03-30T02:51:54.239Z,13.00
2023-03-30T02:54:49.160Z,13.00
2023-03-30T02:57:43.186Z,12.90
2023-03-30T03:00:18.783Z,12.90
2023-03-30T03:02:51.537Z,12.90
2023-03-30T03:05:19.314Z,12.80
2023-03-30T03:07:47.987Z,12.80
2023-03-30T03:10:14.954Z,12.80
2023-03-30T03:12:44.216Z,12.70
2023-03-30T03:15:11.447Z,12.80
2023-03-30T03:17:39.048Z,12.80
2023-03-30T03:20:07.803Z,12.80
2023-03-30T03:22:34.404Z,12.80
2023-03-30T03:25:02.562Z,12.90
2023-03-30T03:27:29.328Z,12.80
2023-03-30T03:29:56.024Z,12.80
2023-03-30T03:32:22.794Z,12.80
2023-03-30T03:34:49.931Z,12.90
2023-03-30T03:37:16.581Z,12.90
2023-03-30T03:39:43.200Z,12.90
2023-03-30T03:42:09.943Z,12.80
2023-03-30T03:44:37.708Z,12.70
2023-03-30T03:47:04.450Z,12.70
2023-03-30T03:49:31.122Z,12.70
2023-03-30T03:51:57.790Z,12.70
2023-03-30T03:54:24.482Z,12.70
2023-03-30T03:56:52.004Z,12.60
2023-03-30T03:59:18.784Z,12.40
2023-03-30T04:01:45.449Z,12.30
2023-03-30T04:04:12.161Z,12.30
2023-03-30T04:06:38.902Z,12.20
2023-03-30T04:09:05.649Z,12.20
2023-03-30T04:11:32.310Z,12.30
2023-03-30T04:13:58.913Z,12.30
2023-03-30T04:16:25.744Z,12.40
2023-03-30T04:18:52.409Z,12.50
2023-03-30T04:21:20.175Z,12.50
2023-03-30T04:23:48.831Z,12.60
2023-03-30T04:26:15.789Z,12.70
2023-03-30T04:28:42.650Z,12.80
2023-03-30T04:31:10.703Z,12.90
2023-03-30T04:33:47.397Z,13.00
2023-03-30T04:36:17.853Z,13.00
2023-03-30T04:39:00.578Z,13.10
2023-03-30T04:41:35.812Z,13.20
2023-03-30T04:44:04.279Z,13.30
2023-03-30T04:46:31.519Z,13.30
2023-03-30T04:48:58.578Z,13.40
2023-03-30T04:51:25.449Z,13.50
2023-03-30T04:53:52.194Z,13.60
2023-03-30T04:56:18.832Z,13.60
2023-03-30T04:58:45.829Z,13.50
2023-03-30T05:01:12.561Z,13.50
2023-03-30T05:03:39.459Z,13.40
2023-03-30T05:06:06.474Z,13.20
2023-03-30T05:08:34.247Z,13.20
2023-03-30T05:11:02.750Z,13.10
2023-03-30T05:13:29.638Z,13.10
2023-03-30T05:15:56.931Z,13.10
2023-03-30T05:18:23.599Z,13.10
2023-03-30T05:20:50.532Z,12.90
2023-03-30T05:23:17.249Z,12.90
2023-03-30T05:25:46.332Z,12.80
2023-03-30T05:28:13.036Z,12.80
2023-03-30T05:30:39.694Z,12.90
2023-03-30T05:33:09.598Z,13.00
2023-03-30T05:35:39.664Z,13.00
2023-03-30T05:38:07.329Z,13.00
2023-03-30T05:40:34.144Z,13.10
2023-03-30T05:43:01.054Z,13.10
2023-03-30T05:45:27.737Z,13.20
2023-03-30T05:47:54.753Z,13.20
2023-03-30T05:50:22.013Z,13.20
2023-03-30T05:52:49.151Z,13.20
2023-03-30T05:55:16.322Z,13.20
2023-03-30T05:57:43.058Z,13.20
2023-03-30T06:00:11.105Z,13.20
2023-03-30T06:02:37.789Z,13.10
2023-03-30T06:05:04.794Z,13.00
2023-03-30T06:07:31.562Z,12.90
2023-03-30T06:09:59.643Z,12.70
2023-03-30T06:12:26.976Z,12.70
2023-03-30T06:14:53.570Z,12.60
2023-03-30T06:17:20.230Z,12.60
2023-03-30T06:19:46.822Z,12.60
2023-03-30T06:22:13.521Z,12.60
2023-03-30T06:24:40.163Z,12.70
2023-03-30T06:27:07.414Z,12.70
2023-03-30T06:29:34.076Z,12.80
2023-03-30T06:32:03.537Z,12.90
2023-03-30T06:34:30.358Z,12.90
2023-03-30T06:36:57.234Z,13.00
2023-03-30T06:39:25.251Z,13.10
2023-03-30T06:41:52.116Z,13.10
2023-03-30T06:44:19.737Z,13.20
2023-03-30T06:46:46.943Z,13.30
2023-03-30T06:49:14.062Z,13.20
2023-03-30T06:51:42.140Z,13.30
2023-03-30T06:54:09.337Z,13.30
2023-03-30T06:56:35.994Z,13.30
2023-03-30T06:59:03.415Z,13.20
2023-03-30T07:01:30.117Z,13.20
2023-03-30T07:03:56.879Z,13.20
2023-03-30T07:06:24.293Z,13.20
2023-03-30T07:08:50.965Z,13.20
2023-03-30T07:11:17.565Z,13.20
2023-03-30T07:13:44.228Z,13.30
2023-03-30T07:16:10.834Z,13.30
2023-03-30T07:18:37.468Z,13.20
2023-03-30T07:21:04.737Z,13.20
2023-03-30T07:23:31.989Z,13.30
2023-03-30T07:25:58.582Z,13.40
2023-03-30T07:28:26.054Z,13.40
2023-03-30T07:30:53.033Z,13.40
2023-03-30T07:33:19.903Z,13.50
2023-03-30T07:35:47.511Z,13.60
2023-03-30T07:38:14.478Z,13.60
2023-03-30T07:40:41.248Z,13.60
2023-03-30T07:43:07.963Z,13.60
2023-03-30T07:45:34.916Z,13.60
2023-03-30T07:48:01.614Z,13.70
2023-03-30T07:50:28.306Z,13.70
2023-03-30T07:52:55.001Z,13.70
2023-03-30T07:55:21.854Z,13.70
2023-03-30T07:57:48.459Z,13.70
2023-03-30T08:00:15.757Z,13.70
2023-03-30T08:02:42.796Z,13.70
2023-03-30T08:05:09.733Z,13.60
2023-03-30T08:07:36.898Z,13.60
2023-03-30T08:10:03.846Z,13.70
2023-03-30T08:12:30.559Z,13.70
2023-03-30T08:14:57.183Z,13.70
2023-03-30T08:17:23.844Z,13.70
2023-03-30T08:19:50.493Z,13.70
2023-03-30T08:22:17.101Z,13.80
2023-03-30T08:24:43.791Z,13.90
2023-03-30T08:27:10.494Z,13.90
2023-03-30T08:29:37.121Z,13.90
2023-03-30T08:32:03.929Z,13.90
2023-03-30T08:34:31.559Z,13.90
2023-03-30T08:36:58.304Z,14.00
2023-03-30T08:39:25.432Z,14.10
2023-03-30T08:42:06.510Z,14.20
2023-03-30T08:44:42.429Z,14.20
2023-03-30T08:47:29.684Z,14.30
2023-03-30T08:49:59.973Z,14.30
2023-03-30T08:52:26.759Z,14.40
2023-03-30T08:54:53.936Z,14.40
2023-03-30T08:58:01.140Z,14.50
2023-03-30T09:00:32.200Z,14.50
2023-03-30T09:03:18.068Z,14.50
2023-03-30T09:05:54.545Z,14.50
2023-03-30T09:08:24.489Z,14.40
2023-03-30T09:11:02.077Z,14.50
2023-03-30T09:13:33.735Z,14.50
2023-03-30T09:16:11.556Z,14.50
2023-03-30T09:18:41.852Z,14.60
2023-03-30T09:21:13.141Z,14.80
2023-03-30T09:23:40.141Z,15.00
2023-03-30T09:26:39.593Z,15.10
2023-03-30T09:29:31.386Z,15.10
2023-03-30T09:32:14.025Z,15.00
2023-03-30T09:34:48.711Z,14.90
2023-03-30T09:37:21.719Z,14.90
2023-03-30T09:39:49.736Z,14.80
2023-03-30T09:42:41.457Z,14.80
2023-03-30T09:45:15.550Z,14.80
2023-03-30T09:47:42.767Z,14.80
2023-03-30T09:50:15.866Z,14.80
2023-03-30T09:52:59.457Z,14.80
2023-03-30T09:55:30.273Z,14.80
2023-03-30T09:58:35.113Z,14.80
2023-03-30T10:01:13.365Z,14.80
2023-03-30T10:03:44.194Z,14.80
2023-03-30T10:06:19.568Z,14.80
2023-03-30T10:08:53.731Z,15.00
2023-03-30T10:11:42.689Z,15.00
2023-03-30T10:14:29.120Z,15.10
2023-03-30T10:16:57.149Z,15.20
2023-03-30T10:19:25.002Z,15.50
2023-03-30T10:21:57.736Z,15.60
2023-03-30T10:24:25.600Z,15.80
2023-03-30T10:27:09.781Z,16.00
2023-03-30T10:29:36.874Z,16.20
2023-03-30T10:32:11.958Z,16.30
2023-03-30T10:34:42.392Z,16.50
2023-03-30T10:37:16.457Z,16.60
2023-03-30T10:39:46.920Z,16.70
2023-03-30T10:42:20.347Z,16.90
2023-03-30T10:44:58.678Z,17.30
2023-03-30T10:47:40.315Z,17.40
2023-03-30T10:50:22.732Z,17.60
2023-03-30T10:53:01.486Z,17.80
2023-03-30T10:55:42.290Z,18.00
2023-03-30T10:58:44.998Z,18.00
2023-03-30T11:01:11.641Z,18.10
2023-03-30T11:03:40.222Z,18.10
2023-03-30T11:06:17.410Z,18.20
2023-03-30T11:08:47.723Z,18.50
2023-03-30T11:11:20.837Z,18.60
2023-03-30T11:14:01.779Z,19.00
2023-03-30T11:16:47.976Z,19.30
2023-03-30T11:19:21.902Z,19.50
2023-03-30T11:22:00.210Z,19.60
2023-03-30T11:24:28.739Z,19.50
2023-03-30T11:27:12.992Z,19.80
2023-03-30T11:29:49.533Z,20.10
2023-03-30T11:32:47.486Z,20.40
2023-03-30T11:35:19.054Z,20.40
2023-03-30T11:37:58.796Z,20.40
2023-03-30T11:40:40.943Z,20.60
2023-03-30T11:43:11.617Z,20.60
2023-03-30T11:46:16.165Z,20.70
2023-03-30T11:49:11.554Z,20.40
2023-03-30T11:51:57.069Z,20.20
2023-03-30T11:55:03.712Z,20.00
2023-03-30T11:57:33.907Z,19.80
2023-03-30T12:00:09.530Z,19.60
2023-03-30T12:03:26.864Z,19.70
2023-03-30T12:06:13.660Z,19.80
2023-03-30T12:09:05.889Z,20.00
2023-03-30T12:11:41.542Z,19.70
2023-03-30T12:14:32.120Z,20.00
2023-03-30T12:17:13.936Z,20.20
2023-03-30T12:19:56.254Z,20.20
2023-03-30T12:22:42.239Z,20.40
2023-03-30T12:25:32.443Z,20.40
2023-03-30T12:28:09.284Z,20.10
2023-03-30T12:31:02.098Z,19.70
2023-03-30T12:33:34.075Z,19.80
2023-03-30T12:36:23.093Z,20.00
2023-03-30T12:38:50.008Z,19.90
2023-03-30T12:41:20.648Z,19.50
2023-03-30T12:44:04.489Z,19.20
2023-03-30T12:46:50.087Z,19.00
2023-03-30T12:49:39.433Z,19.00
2023-03-30T12:52:37.852Z,18.80
2023-03-30T12:55:28.782Z,18.60
2023-03-30T12:58:10.794Z,18.40
2023-03-30T13:00:52.790Z,18.20
2023-03-30T13:03:25.931Z,17.90
2023-03-30T13:05:55.495Z,17.80
2023-03-30T13:08:30.847Z,17.40
2023-03-30T13:11:19.822Z,17.10
2023-03-30T13:13:55.924Z,17.30
2023-03-30T13:16:57.792Z,17.70
2023-03-30T13:19:31.912Z,17.60
2023-03-30T13:22:26.711Z,17.50
2023-03-30T13:25:22.599Z,17.40
2023-03-30T13:27:52.894Z,17.10
2023-03-30T13:30:20.293Z,16.50
2023-03-30T13:33:12.359Z,16.60
2023-03-30T13:36:01.612Z,17.10
2023-03-30T13:38:48.284Z,17.80
2023-03-30T13:41:33.761Z,18.20
2023-03-30T13:44:17.643Z,18.60
2023-03-30T13:47:09.825Z,19.10
2023-03-30T13:49:49.963Z,19.30
2023-03-30T13:52:19.551Z,19.20
2023-03-30T13:54:47.046Z,19.10
2023-03-30T13:57:18.900Z,19.00
2023-03-30T13:59:52.255Z,18.90
2023-03-30T14:02:22.053Z,18.80
2023-03-30T14:04:51.365Z,18.60
2023-03-30T14:07:21.018Z,18.10
2023-03-30T14:10:11.903Z,17.70
2023-03-30T14:12:40.003Z,17.50
2023-03-30T14:15:35.549Z,17.60
2023-03-30T14:18:04.511Z,17.70
2023-03-30T14:20:50.804Z,17.80
2023-03-30T14:23:48.884Z,17.80
2023-03-30T14:26:18.198Z,17.80
2023-03-30T14:28:45.094Z,17.70
2023-03-30T14:31:18.704Z,17.70
2023-03-30T14:33:46.165Z,17.60
2023-03-30T14:36:18.223Z,17.30
2023-03-30T14:38:47.836Z,17.20
2023-03-30T14:41:32.487Z,17.10
2023-03-30T14:44:07.677Z,17.10
2023-03-30T14:46:43.056Z,17.10
2023-03-30T14:49:20.596Z,17.20
2023-03-30T14:51:50.338Z,17.40
2023-03-30T14:54:22.960Z,17.80
2023-03-30T14:56:58.787Z,17.90
2023-03-30T14:59:27.274Z,18.00
2023-03-30T15:01:55.539Z,17.80
2023-03-30T15:04:27.648Z,17.60
2023-03-30T15:06:54.773Z,17.40
2023-03-30T15:09:24.018Z,17.20
2023-03-30T15:12:00.283Z,17.00
2023-03-30T15:14:35.709Z,16.80
2023-03-30T15:17:15.283Z,16.70
2023-03-30T15:19:42.506Z,16.70
2023-03-30T15:22:20.766Z,16.60
2023-03-30T15:24:47.513Z,16.50
2023-03-30T15:27:16.338Z,16.60
2023-03-30T15:29:44.776Z,16.60
2023-03-30T15:32:36.260Z,16.60
2023-03-30T15:35:14.655Z,16.60
2023-03-30T15:38:02.772Z,16.60
2023-03-30T15:40:41.435Z,16.50
2023-03-30T15:43:22.440Z,16.50
2023-03-30T15:45:59.997Z,16.40
2023-03-30T15:48:48.330Z,16.80
2023-03-30T15:51:17.435Z,16.30
2023-03-30T15:54:01.226Z,16.20
2023-03-30T15:56:39.339Z,16.10
2023-03-30T15:59:12.967Z,16.10
2023-03-30T16:01:53.886Z,16.10
2023-03-30T16:04:23.573Z,16.10
2023-03-30T16:06:50.898Z,16.10
2023-03-30T16:09:17.857Z,16.10
2023-03-30T16:11:46.085Z,16.00
2023-03-30T16:14:15.438Z,16.00
2023-03-30T16:16:42.072Z,15.90
2023-03-30T16:19:12.818Z,15.80
2023-03-30T16:21:39.805Z,15.80
2023-03-30T16:24:07.203Z,15.90
2023-03-30T16:26:33.872Z,16.00
2023-03-30T16:29:00.715Z,16.20
2023-03-30T16:31:27.404Z,16.40
2023-03-30T16:33:54.118Z,16.50
2023-03-30T16:36:22.358Z,16.60
2023-03-30T16:38:49.000Z,16.80
2023-03-30T16:41:19.712Z,16.80
2023-03-30T16:43:47.228Z,16.80
2023-03-30T16:46:15.910Z,16.80
2023-03-30T16:48:43.020Z,16.70
2023-03-30T16:51:11.778Z,16.60
2023-03-30T16:53:38.405Z,16.50
2023-03-30T16:56:05.737Z,16.30
2023-03-30T16:58:32.380Z,16.20
2023-03-30T17:01:05.172Z,16.00
2023-03-30T17:03:32.040Z,15.90
2023-03-30T17:05:58.944Z,15.90
2023-03-30T17:08:27.800Z,15.80
2023-03-30T17:10:57.176Z,15.70
2023-03-30T17:13:23.932Z,15.60
2023-03-30T17:15:50.766Z,15.50
2023-03-30T17:18:20.354Z,15.20
2023-03-30T17:20:57.786Z,15.30
2023-03-30T17:23:30.353Z,15.10
2023-03-30T17:25:58.742Z,15.00
2023-03-30T17:28:28.094Z,15.00
2023-03-30T17:30:57.267Z,14.90
2023-03-30T17:33:24.499Z,14.80
2023-03-30T17:35:57.395Z,14.70
2023-03-30T17:38:24.496Z,14.60
2023-03-30T17:40:51.761Z,14.60
2023-03-30T17:43:18.613Z,14.50
2023-03-30T17:45:46.714Z,14.40
2023-03-30T17:48:18.756Z,14.40
2023-03-30T17:50:47.843Z,14.30
2023-03-30T17:53:16.893Z,14.30
2023-03-30T17:55:49.464Z,14.20
2023-03-30T17:58:24.725Z,14.20
2023-03-30T18:00:52.955Z,14.10
2023-03-30T18:03:21.737Z,14.00
2023-03-30T18:05:49.460Z,13.90
2023-03-30T18:08:22.366Z,13.80
2023-03-30T18:10:59.543Z,13.80
2023-03-30T18:13:28.614Z,13.80
2023-03-30T18:15:58.326Z,13.70
2023-03-30T18:18:27.507Z,13.70
2023-03-30T18:20:55.324Z,13.50
2023-03-30T18:23:22.573Z,13.50
2023-03-30T18:25:49.638Z,13.50
2023-03-30T18:28:24.516Z,13.40
2023-03-30T18:30:57.217Z,13.40
2023-03-30T18:33:24.587Z,13.40
2023-03-30T18:35:52.397Z,13.30
2023-03-30T18:38:21.463Z,13.30
2023-03-30T18:40:51.908Z,13.30
2023-03-30T18:43:18.627Z,13.30
2023-03-30T18:45:47.067Z,13.40
2023-03-30T18:48:15.940Z,13.30
2023-03-30T18:50:53.561Z,13.20
2023-03-30T18:53:25.654Z,13.10
2023-03-30T18:55:56.994Z,13.00
2023-03-30T18:58:26.411Z,13.00
2023-03-30T19:00:53.831Z,12.90
2023-03-30T19:03:22.058Z,12.90
2023-03-30T19:05:50.248Z,12.80
2023-03-30T19:08:22.459Z,12.80
2023-03-30T19:10:51.710Z,12.80
2023-03-30T19:13:20.295Z,12.80
2023-03-30T19:15:48.032Z,12.80
2023-03-30T19:18:15.401Z,12.70
2023-03-30T19:20:42.474Z,12.70
2023-03-30T19:23:14.558Z,12.70
2023-03-30T19:25:42.978Z,12.60
2023-03-30T19:28:09.920Z,12.60
2023-03-30T19:30:39.210Z,12.60
2023-03-30T19:33:09.071Z,12.50
2023-03-30T19:35:36.003Z,12.40
2023-03-30T19:38:02.730Z,12.30
2023-03-30T19:40:29.373Z,12.40
2023-03-30T19:42:55.972Z,12.40
2023-03-30T19:45:23.605Z,12.30
2023-03-30T19:47:51.393Z,12.30
2023-03-30T19:50:20.278Z,12.30
2023-03-30T19:52:49.956Z,12.30
2023-03-30T19:55:18.381Z,12.30
2023-03-30T19:57:45.443Z,12.20
2023-03-30T20:00:15.641Z,12.20
2023-03-30T20:02:44.929Z,12.20
2023-03-30T20:05:18.401Z,12.10
2023-03-30T20:07:45.873Z,12.10
2023-03-30T20:10:15.740Z,12.10
2023-03-30T20:12:42.484Z,12.10
2023-03-30T20:15:09.599Z,12.20
2023-03-30T20:17:38.060Z,12.20
2023-03-30T20:20:08.426Z,12.20
2023-03-30T20:22:36.829Z,12.30
2023-03-30T20:25:07.342Z,12.30
2023-03-30T20:27:35.051Z,12.30
2023-03-30T20:30:02.398Z,12.30
2023-03-30T20:32:29.079Z,12.40
2023-03-30T20:34:55.786Z,12.40
2023-03-30T20:37:22.610Z,12.40
2023-03-30T20:39:52.363Z,12.40
2023-03-30T20:42:25.766Z,12.50
2023-03-30T20:44:53.386Z,12.40
2023-03-30T20:47:23.125Z,12.40
2023-03-30T20:49:49.858Z,12.40
2023-03-30T20:52:16.787Z,12.40
2023-03-30T20:54:44.637Z,12.50
2023-03-30T20:57:11.677Z,12.50
2023-03-30T20:59:39.312Z,12.50
2023-03-30T21:02:06.370Z,12.50
2023-03-30T21:04:33.725Z,12.50
2023-03-30T21:07:00.856Z,12.50
2023-03-30T21:09:27.948Z,12.50
2023-03-30T21:11:54.693Z,12.50
2023-03-30T21:14:21.522Z,12.40
2023-03-30T21:16:48.208Z,12.30
2023-03-30T21:19:14.924Z,12.30
2023-03-30T21:21:41.662Z,12.30
2023-03-30T21:24:10.296Z,12.20
2023-03-30T21:26:37.912Z,12.20
2023-03-30T21:29:05.591Z,12.10
2023-03-30T21:31:32.588Z,12.10
2023-03-30T21:33:59.992Z,12.00
2023-03-30T21:36:27.048Z,12.00
2023-03-30T21:38:55.930Z,11.90
2023-03-30T21:41:24.130Z,11.90
2023-03-30T21:43:50.927Z,11.90
2023-03-30T21:46:23.259Z,12.00
2023-03-30T21:48:53.344Z,12.00
2023-03-30T21:51:23.657Z,11.90
2023-03-30T21:53:52.286Z,11.90
2023-03-30T21:56:22.282Z,11.90
2023-03-30T21:58:49.993Z,11.90
2023-03-30T22:01:17.661Z,11.90
2023-03-30T22:03:45.798Z,11.90
2023-03-30T22:06:14.279Z,11.90
2023-03-30T22:08:41.045Z,11.90
2023-03-30T22:11:12.848Z,11.90
2023-03-30T22:13:39.570Z,11.90
2023-03-30T22:16:18.575Z,11.90
2023-03-30T22:18:46.291Z,11.90
2023-03-30T22:21:18.431Z,11.90
2023-03-30T22:23:45.989Z,11.80
2023-03-30T22:26:13.772Z,11.80
2023-03-30T22:28:40.996Z,11.80
2023-03-30T22:31:08.865Z,11.90
2023-03-30T22:33:35.784Z,11.90
2023-03-30T22:36:03.168Z,11.90
2023-03-30T22:38:30.453Z,11.90
2023-03-30T22:41:07.273Z,11.90
2023-03-30T22:43:35.585Z,11.90
2023-03-30T22:46:02.303Z,11.90
2023-03-30T22:48:29.064Z,11.80
2023-03-30T22:50:58.014Z,11.80
2023-03-30T22:53:24.674Z,11.90
2023-03-30T22:55:51.333Z,11.80
2023-03-30T22:58:17.932Z,11.90
2023-03-30T23:00:44.592Z,11.90
2023-03-30T23:03:11.329Z,11.90
2023-03-30T23:05:38.993Z,11.90
2023-03-30T23:08:05.830Z,11.90
2023-03-30T23:10:33.491Z,12.00
2023-03-30T23:13:00.642Z,12.00
2023-03-30T23:15:29.140Z,12.00
2023-03-30T23:17:55.841Z,12.10
2023-03-30T23:20:22.484Z,12.10
2023-03-30T23:22:49.443Z,12.20
2023-03-30T23:25:16.438Z,12.10
2023-03-30T23:27:43.294Z,12.10
2023-03-30T23:30:10.325Z,12.10
2023-03-30T23:32:37.028Z,12.10
2023-03-30T23:35:03.950Z,12.00
2023-03-30T23:37:32.555Z,12.00
2023-03-30T23:40:01.573Z,12.00
2023-03-30T23:42:28.820Z,11.90
2023-03-30T23:44:55.558Z,11.90
2023-03-30T23:47:22.227Z,11.90
2023-03-30T23:49:48.847Z,11.90
2023-03-30T23:52:15.530Z,11.90
2023-03-30T23:54:42.287Z,11.90
2023-03-30T23:57:09.703Z,11.90
2023-03-30T23:59:37.124Z,11.90
